Time;durP1;ratioP1;P1;durP2;ratioP2;P2;SDS_P1;SDS_P2;PMS_P1;PMS_P2;Temp;Humidity;BMP_temperature;BMP_pressure;BME280_temperature;BME280_humidity;BME280_pressure;Samples;Min_cycle;Max_cycle;Signal;HPM_P1;HPM_P2
2024/04/22 06:59:48;;;;;;;19.17;7.15;;;;;;;4.98;77.01;96932.56;2240541;26;20567;-65
2024/04/22 07:01:49;;;;;;;8.35;4.32;;;;;;;5.05;75.59;96934.16;2238373;26;20627;-65
2024/04/22 07:03:45;;;;;;;27.52;10.30;;;;;;;5.45;74.59;96939.47;2226549;26;20614;-65
2024/04/22 07:04:48;;;;;;;14.20;5.18;;;;;;;5.45;74.29;96942.06;2213977;26;20208;-65
2024/04/22 07:05:50;;;;;;;15.50;6.18;;;;;;;5.69;73.96;96940.72;2201573;26;20252;-65
2024/04/22 07:06:52;;;;;;;16.88;6.05;;;;;;;5.63;72.75;96939.09;2200109;26;20221;-65
2024/04/22 07:07:54;;;;;;;8.68;4.35;;;;;;;5.88;73.43;96934.25;2200575;26;20259;-65
2024/04/22 07:08:55;;;;;;;8.02;2.90;;;;;;;5.99;71.74;96941.84;2198522;27;20226;-65
2024/04/22 07:09:57;;;;;;;5.22;2.50;;;;;;;5.96;71.49;96939.28;2199386;26;20288;-65
2024/04/22 07:10:59;;;;;;;6.63;2.80;;;;;;;5.79;72.08;96942.25;2195219;26;20292;-65
2024/04/22 07:12:00;;;;;;;6.55;2.38;;;;;;;5.87;72.50;96949.84;2194766;27;20265;-65
2024/04/22 07:13:02;;;;;;;4.80;2.80;;;;;;;5.95;71.62;96947.09;2193634;27;20263;-65
2024/04/22 07:14:03;;;;;;;5.10;3.30;;;;;;;5.85;71.39;96947.28;2192220;26;20314;-65
2024/04/22 07:15:05;;;;;;;4.90;2.33;;;;;;;6.12;71.12;96949.34;2199487;27;20265;-65
2024/04/22 07:16:07;;;;;;;4.20;2.03;;;;;;;6.26;70.87;96949.03;2194845;27;20297;-65
2024/04/22 07:17:08;;;;;;;11.85;3.15;;;;;;;6.49;70.27;96944.19;2198193;26;20269;-66
2024/04/22 07:18:10;;;;;;;4.32;2.60;;;;;;;6.58;70.17;96948.28;2201505;26;20216;-65
2024/04/22 07:19:14;;;;;;;4.53;2.55;;;;;;;6.43;69.60;96946.91;2199347;27;20950;-65
2024/04/22 07:20:16;;;;;;;7.90;2.53;;;;;;;6.34;70.21;96942.78;2200361;26;20220;-66
2024/04/22 07:21:17;;;;;;;5.28;2.67;;;;;;;6.30;69.71;96954.13;2197901;27;20226;-65
2024/04/22 07:22:20;;;;;;;7.80;3.95;;;;;;;6.29;69.16;96955.00;2200579;26;20220;-65
2024/04/22 07:23:22;;;;;;;5.90;3.20;;;;;;;6.56;69.68;96955.25;2199148;27;20641;-65
2024/04/22 07:24:24;;;;;;;4.68;2.42;;;;;;;6.70;69.86;96957.50;2199401;26;20214;-66
2024/04/22 07:25:28;;;;;;;4.65;2.70;;;;;;;6.54;70.31;96949.25;2200094;26;20376;-66
2024/04/22 07:26:30;;;;;;;8.35;2.70;;;;;;;6.29;71.02;96952.41;2196471;27;20260;-66
2024/04/22 07:27:33;;;;;;;5.75;3.42;;;;;;;5.79;71.92;96938.78;2198849;27;20232;-66
2024/04/22 07:28:34;;;;;;;6.47;3.08;;;;;;;5.79;72.77;96954.31;2201382;27;20217;-66
2024/04/22 07:29:36;;;;;;;9.88;3.45;;;;;;;6.12;72.06;96959.72;2197035;27;20663;-66
2024/04/22 07:30:38;;;;;;;4.82;2.88;;;;;;;5.86;72.63;96967.13;2198421;26;20246;-66
2024/04/22 07:31:42;;;;;;;6.30;2.60;;;;;;;5.75;74.00;96965.66;2198701;26;20284;-65
2024/04/22 07:32:44;;;;;;;7.35;3.00;;;;;;;5.96;72.54;96965.19;2198189;27;20664;-66
2024/04/22 07:33:46;;;;;;;5.93;2.95;;;;;;;6.28;72.52;96962.81;2200338;27;20224;-65
2024/04/22 07:34:48;;;;;;;4.00;2.55;;;;;;;6.16;72.22;96961.38;2200501;26;20283;-65
2024/04/22 07:35:55;;;;;;;6.30;2.90;;;;;;;6.32;71.59;96962.72;2199938;26;20264;-66
2024/04/22 07:37:22;;;;;;;4.30;2.50;;;;;;;6.33;71.96;96966.16;2199799;27;20318;-66
2024/04/22 07:38:30;;;;;;;6.28;2.75;;;;;;;6.06;71.38;96963.31;2199896;27;20384;-65
2024/04/22 07:39:34;;;;;;;5.95;2.88;;;;;;;6.05;71.07;96966.78;2197289;27;20224;-65
2024/04/22 07:40:36;;;;;;;3.30;2.47;;;;;;;5.76;70.22;96969.94;2194004;26;20255;-66
2024/04/22 07:41:38;;;;;;;3.50;2.15;;;;;;;6.11;71.32;96965.81;2197291;26;20229;-65
2024/04/22 07:42:41;;;;;;;7.55;2.85;;;;;;;6.37;69.64;96955.69;2197552;26;20214;-65
2024/04/22 07:43:42;;;;;;;5.63;2.67;;;;;;;6.72;68.65;96965.25;2195941;26;20225;-66
2024/04/22 07:44:44;;;;;;;5.18;2.60;;;;;;;7.11;67.89;96958.25;2196372;27;20220;-65
2024/04/22 07:45:45;;;;;;;9.07;2.88;;;;;;;7.17;63.15;96954.63;2194083;26;20310;-66
2024/04/22 07:46:47;;;;;;;6.45;2.60;;;;;;;7.66;63.15;96958.47;2200494;27;21399;-65
2024/04/22 07:47:51;;;;;;;4.88;2.28;;;;;;;8.10;62.18;96952.91;2201924;26;20225;-65
2024/04/22 07:48:53;;;;;;;4.53;2.38;;;;;;;8.54;61.81;96951.63;2200631;27;20267;-65
2024/04/22 07:49:55;;;;;;;5.47;2.67;;;;;;;8.89;62.26;96954.81;2199732;26;20265;-66
2024/04/22 07:50:56;;;;;;;2.60;1.90;;;;;;;9.04;61.62;96958.66;2197155;26;21500;-66
2024/04/22 07:51:58;;;;;;;6.47;2.10;;;;;;;8.61;62.13;96958.34;2198137;26;20620;-66
2024/04/22 07:52:59;;;;;;;3.33;2.00;;;;;;;8.88;61.41;96956.56;2195056;26;20217;-66
2024/04/22 07:54:01;;;;;;;8.02;2.13;;;;;;;8.76;61.71;96959.56;2199322;26;20698;-66
2024/04/22 07:55:04;;;;;;;6.60;2.70;;;;;;;9.03;60.81;96952.63;2198635;26;20672;-66
2024/04/22 07:56:16;;;;;;;9.40;2.30;;;;;;;9.21;60.02;96953.75;2200600;26;20753;-66
2024/04/22 07:57:18;;;;;;;4.60;2.58;;;;;;;9.31;60.50;96949.91;2194806;27;20261;-66
2024/04/22 07:58:20;;;;;;;6.20;1.90;;;;;;;9.02;60.46;96953.50;2197594;27;20590;-66
2024/04/22 07:59:22;;;;;;;4.72;2.55;;;;;;;9.12;59.40;96948.84;2200932;26;20217;-66
2024/04/22 08:00:24;;;;;;;4.55;2.63;;;;;;;9.06;60.87;96952.50;2203737;26;20237;-66
2024/04/22 08:01:25;;;;;;;10.10;2.30;;;;;;;9.03;62.30;96950.00;2208326;26;20316;-66
2024/04/22 08:02:27;;;;;;;5.03;2.42;;;;;;;9.04;61.66;96949.13;2197561;26;21076;-66
2024/04/22 08:03:32;;;;;;;8.60;2.55;;;;;;;8.54;62.24;96947.25;2199004;27;20233;-66
2024/04/22 08:04:34;;;;;;;6.93;2.30;;;;;;;8.66;63.64;96952.06;2196377;26;20252;-66
2024/04/22 08:05:36;;;;;;;6.70;2.28;;;;;;;8.88;61.97;96950.53;2198138;26;20253;-66
2024/04/22 08:06:39;;;;;;;4.05;2.35;;;;;;;9.22;61.93;96946.75;2199158;26;21025;-66
2024/04/22 08:07:42;;;;;;;3.58;1.92;;;;;;;9.09;62.54;96961.97;2197018;26;20257;-66
2024/04/22 08:08:44;;;;;;;10.90;3.10;;;;;;;9.06;61.57;96959.47;2196130;26;20231;-66
2024/04/22 08:09:46;;;;;;;8.18;2.80;;;;;;;9.25;61.17;96951.88;2194133;27;20319;-66
2024/04/22 08:10:48;;;;;;;3.20;2.00;;;;;;;8.50;61.58;96951.69;2191202;27;20248;-66
2024/04/22 08:11:49;;;;;;;4.38;2.70;;;;;;;8.17;62.45;96959.59;2195191;27;20225;-66
2024/04/22 08:12:51;;;;;;;5.50;2.47;;;;;;;8.47;62.02;96957.00;2196121;26;20704;-66
2024/04/22 08:13:53;;;;;;;7.68;2.78;;;;;;;8.52;61.33;96953.41;2196690;27;20225;-66
2024/04/22 08:14:54;;;;;;;4.50;2.28;;;;;;;8.13;62.01;96955.41;2192866;27;21430;-66
2024/04/22 08:15:56;;;;;;;15.25;3.47;;;;;;;8.21;62.48;96956.94;2193994;26;20585;-66
2024/04/22 08:16:57;;;;;;;4.72;2.58;;;;;;;8.55;62.86;96955.94;2193341;26;20524;-66
2024/04/22 08:17:59;;;;;;;4.30;2.45;;;;;;;9.11;62.59;96961.00;2192917;27;20242;-66
2024/04/22 08:19:01;;;;;;;10.18;2.80;;;;;;;8.83;61.39;96959.31;2191230;26;20217;-66
2024/04/22 08:20:03;;;;;;;6.70;2.90;;;;;;;9.12;62.58;96960.13;2194229;26;20225;-66
2024/04/22 08:21:07;;;;;;;3.60;2.03;;;;;;;8.75;61.77;96963.09;2191145;26;20253;-66
2024/04/22 08:22:08;;;;;;;4.18;2.22;;;;;;;8.60;61.26;96957.47;2192772;26;20221;-66
2024/04/22 08:23:10;;;;;;;5.78;2.28;;;;;;;9.11;60.77;96953.19;2191937;26;20730;-66
2024/04/22 08:24:11;;;;;;;4.57;2.97;;;;;;;9.25;59.90;96957.09;2191932;27;20236;-66
2024/04/22 08:25:13;;;;;;;6.00;2.80;;;;;;;9.57;60.41;96950.78;2192293;26;20264;-66
2024/04/22 08:26:14;;;;;;;3.65;2.03;;;;;;;10.05;59.28;96951.59;2191409;26;20780;-66
2024/04/22 08:27:16;;;;;;;4.18;2.35;;;;;;;9.76;60.41;96950.09;2193384;26;20594;-66
2024/04/22 08:28:18;;;;;;;6.15;2.72;;;;;;;9.24;60.31;96952.78;2193188;27;20222;-66
2024/04/22 08:29:19;;;;;;;7.00;2.60;;;;;;;8.51;60.15;96960.38;2193615;27;20274;-66
2024/04/22 08:30:21;;;;;;;4.25;2.65;;;;;;;8.47;61.09;96951.81;2193469;26;20314;-66
2024/04/22 08:31:22;;;;;;;4.82;2.30;;;;;;;9.09;60.42;96960.22;2192926;26;20213;-66
2024/04/22 08:32:24;;;;;;;5.57;2.38;;;;;;;9.02;59.81;96963.94;2193011;27;20218;-66
2024/04/22 08:33:26;;;;;;;6.93;2.60;;;;;;;8.52;59.32;96954.28;2193999;27;20285;-66
2024/04/22 08:34:28;;;;;;;4.97;2.30;;;;;;;8.03;61.00;96959.19;2192053;26;20342;-66
2024/04/22 08:35:29;;;;;;;4.10;2.28;;;;;;;8.53;60.98;96957.72;2188614;26;20254;-66
2024/04/22 08:36:31;;;;;;;8.30;3.25;;;;;;;9.10;60.59;96959.34;2191384;26;20256;-66
2024/04/22 08:37:32;;;;;;;4.05;2.38;;;;;;;9.12;59.47;96957.50;2188620;26;20265;-66
2024/04/22 08:38:34;;;;;;;4.10;2.10;;;;;;;9.71;60.25;96957.22;2192390;27;20264;-66
2024/04/22 08:39:36;;;;;;;3.42;2.20;;;;;;;9.36;59.06;96956.72;2191529;26;20284;-66
2024/04/22 08:40:46;;;;;;;4.38;2.33;;;;;;;9.13;59.96;96959.22;2184587;26;20301;-66
2024/04/22 08:41:48;;;;;;;3.33;2.05;;;;;;;8.75;60.12;96955.28;2188456;27;20293;-65
2024/04/22 08:42:49;;;;;;;13.07;3.40;;;;;;;8.98;59.54;96960.56;2192201;26;20268;-66
2024/04/22 08:43:51;;;;;;;7.03;2.30;;;;;;;9.55;59.54;96947.34;2194542;26;20213;-66
2024/04/22 08:44:53;;;;;;;8.38;2.75;;;;;;;8.96;59.34;96956.31;2191874;26;20704;-66
2024/04/22 08:45:55;;;;;;;3.75;2.05;;;;;;;8.71;59.26;96956.28;2191916;26;20295;-66
2024/04/22 08:46:56;;;;;;;4.63;2.60;;;;;;;8.52;60.26;96959.47;2191489;26;20275;-66
2024/04/22 08:47:58;;;;;;;4.00;2.25;;;;;;;8.54;61.32;96962.88;2192156;27;20257;-66
2024/04/22 08:49:00;;;;;;;5.78;2.42;;;;;;;7.87;61.04;96956.16;2190921;27;20637;-66
2024/04/22 08:50:02;;;;;;;4.47;2.15;;;;;;;7.93;61.52;96956.00;2190934;26;20266;-66
2024/04/22 08:51:06;;;;;;;4.43;2.85;;;;;;;7.95;61.91;96956.81;2190789;26;20447;-66
2024/04/22 08:52:08;;;;;;;8.77;2.63;;;;;;;7.94;62.16;96965.50;2193549;27;20572;-66
2024/04/22 08:53:11;;;;;;;4.28;2.30;;;;;;;7.73;62.47;96960.91;2193803;26;20225;-66
2024/04/22 08:54:14;;;;;;;3.97;2.35;;;;;;;7.87;62.25;96963.13;2191535;27;20358;-68
2024/04/22 08:55:21;;;;;;;7.65;2.97;;;;;;;7.85;62.70;96958.81;2191658;26;20225;-66
2024/04/22 08:56:24;;;;;;;4.63;2.20;;;;;;;8.26;62.43;96960.25;2191145;26;20827;-66
2024/04/22 08:57:26;;;;;;;3.95;2.60;;;;;;;8.30;63.56;96959.25;2188970;26;20635;-66
2024/04/22 08:58:27;;;;;;;4.78;2.75;;;;;;;8.98;60.91;96960.56;2190607;27;20726;-66
2024/04/22 08:59:30;;;;;;;5.07;2.40;;;;;;;9.27;59.81;96965.72;2189051;26;20221;-66
2024/04/22 09:00:42;;;;;;;3.80;2.20;;;;;;;9.37;58.44;96954.06;2194269;26;20253;-66
2024/04/22 09:01:44;;;;;;;5.30;2.47;;;;;;;9.55;58.84;96951.69;2190390;27;20213;-66
2024/04/22 09:02:45;;;;;;;5.65;2.33;;;;;;;9.80;59.06;96949.94;2190802;27;20264;-66
2024/04/22 09:03:47;;;;;;;4.07;2.40;;;;;;;10.01;59.37;96950.03;2194935;26;20321;-66
2024/04/22 09:04:49;;;;;;;3.53;1.95;;;;;;;9.69;57.80;96953.81;2189298;26;20939;-66
2024/04/22 09:05:51;;;;;;;9.40;2.50;;;;;;;9.53;59.26;96953.53;2186034;26;20296;-66
2024/04/22 09:06:53;;;;;;;6.60;2.60;;;;;;;10.05;58.23;96946.38;2190389;26;20530;-66
2024/04/22 09:07:57;;;;;;;3.85;2.30;;;;;;;9.97;56.15;96949.28;2192988;27;21240;-66
2024/04/22 09:08:58;;;;;;;4.10;2.63;;;;;;;9.95;57.87;96940.69;2190272;27;20531;-66
2024/04/22 09:10:00;;;;;;;5.75;2.42;;;;;;;9.47;59.92;96950.25;2192474;27;20333;-66
2024/04/22 09:11:22;;;;;;;7.35;2.75;;;;;;;8.86;60.43;96955.75;2192264;27;20256;-66
2024/04/22 09:12:43;;;;;;;7.22;2.75;;;;;;;8.41;61.72;96961.53;2192329;26;20264;-66
2024/04/22 09:13:45;;;;;;;5.38;2.40;;;;;;;8.37;61.01;96957.28;2192457;27;20328;-66
2024/04/22 09:14:57;;;;;;;5.15;2.65;;;;;;;8.47;61.36;96951.81;2194030;27;20225;-66
2024/04/22 09:16:01;;;;;;;4.82;2.42;;;;;;;8.56;59.69;96960.22;2191971;26;20561;-66
2024/04/22 09:17:04;;;;;;;3.97;2.30;;;;;;;8.69;59.21;96956.31;2198779;26;20230;-66
2024/04/22 09:18:11;;;;;;;5.25;2.50;;;;;;;8.53;59.98;96955.94;2201536;26;20225;-66
2024/04/22 09:19:22;;;;;;;6.88;3.00;;;;;;;8.37;60.04;96952.09;2194750;26;20226;-66
2024/04/22 09:20:33;;;;;;;15.80;6.30;;;;;;;7.95;59.73;96955.97;2185670;26;20784;-66
2024/04/22 09:21:35;;;;;;;8.10;3.92;;;;;;;8.10;60.48;96954.63;2192481;27;21524;-66
2024/04/22 09:22:37;;;;;;;4.97;2.40;;;;;;;8.02;60.94;96952.25;2189409;27;20241;-66
2024/04/22 09:23:39;;;;;;;4.85;2.47;;;;;;;7.95;61.64;96953.38;2188456;26;20230;-66
2024/04/22 09:24:42;;;;;;;7.57;3.15;;;;;;;8.43;61.26;96959.72;2185874;26;20227;-66
2024/04/22 09:25:44;;;;;;;10.35;3.70;;;;;;;9.26;59.68;96954.44;2188599;26;20296;-66
2024/04/22 09:26:47;;;;;;;7.80;2.55;;;;;;;9.05;59.17;96942.13;2192857;26;20296;-66
2024/04/22 09:27:49;;;;;;;9.75;2.70;;;;;;;8.35;60.44;96941.75;2194450;26;20245;-66
2024/04/22 09:28:52;;;;;;;8.98;3.50;;;;;;;8.42;60.40;96947.63;2193356;26;20217;-66
2024/04/22 09:30:02;;;;;;;6.70;3.58;;;;;;;8.29;59.88;96941.94;2191178;26;20330;-66
2024/04/22 09:31:05;;;;;;;6.15;2.55;;;;;;;8.15;59.44;96944.94;2189151;26;20279;-66
2024/04/22 09:32:12;;;;;;;6.57;3.70;;;;;;;7.94;58.25;96941.25;2190516;27;20518;-66
2024/04/22 09:33:21;;;;;;;8.27;4.03;;;;;;;7.77;58.53;96947.78;2189097;27;20222;-66
2024/04/22 09:34:27;;;;;;;5.80;2.65;;;;;;;7.93;59.18;96947.34;2189704;27;20312;-66
2024/04/22 09:35:38;;;;;;;9.95;4.05;;;;;;;7.76;59.79;96951.28;2193137;26;20253;-66
2024/04/22 09:36:40;;;;;;;5.60;3.20;;;;;;;7.97;59.62;96948.94;2192095;26;20222;-66
2024/04/22 09:37:42;;;;;;;4.57;2.00;;;;;;;7.95;59.17;96943.81;2190727;26;20585;-66
2024/04/22 09:38:49;;;;;;;6.90;2.58;;;;;;;7.66;59.11;96942.06;2193440;27;20609;-66
2024/04/22 09:39:52;;;;;;;7.93;2.90;;;;;;;7.76;59.42;96942.66;2194403;27;20316;-66
2024/04/22 09:40:54;;;;;;;4.07;2.40;;;;;;;7.76;59.44;96948.69;2188133;26;20460;-66
2024/04/22 09:41:57;;;;;;;4.32;1.95;;;;;;;7.76;59.65;96945.25;2190086;26;20736;-66
2024/04/22 09:43:00;;;;;;;11.20;2.40;;;;;;;7.65;60.24;96942.94;2188436;27;20211;-66
2024/04/22 09:44:03;;;;;;;3.50;2.03;;;;;;;7.58;58.30;96944.88;2190038;27;20944;-66
2024/04/22 09:45:40;;;;;;;4.30;1.70;;;;;;;7.31;59.00;96947.34;2190603;26;20660;-65
2024/04/22 09:46:44;;;;;;;4.53;1.80;;;;;;;7.55;58.78;96944.09;2194083;26;20315;-66
2024/04/22 09:47:49;;;;;;;5.35;2.55;;;;;;;8.40;57.67;96936.41;2192952;26;20608;-66
2024/04/22 09:48:51;;;;;;;3.85;2.30;;;;;;;9.02;56.62;96940.50;2190874;26;20218;-66
2024/04/22 09:49:56;;;;;;;3.65;2.25;;;;;;;8.50;56.86;96936.06;2187528;27;20221;-66
2024/04/22 09:51:00;;;;;;;3.78;2.08;;;;;;;8.54;56.53;96936.84;2181931;26;21020;-66
2024/04/22 09:52:04;;;;;;;14.45;2.22;;;;;;;8.56;57.26;96945.47;2189196;27;20226;-66
2024/04/22 09:53:08;;;;;;;4.43;2.00;;;;;;;8.38;58.21;96938.19;2192599;26;20688;-66
2024/04/22 09:54:10;;;;;;;4.28;2.05;;;;;;;8.28;58.13;96948.88;2189158;26;20266;-66
2024/04/22 09:55:11;;;;;;;4.18;2.22;;;;;;;8.17;58.27;96938.78;2188451;26;20222;-66
2024/04/22 09:56:21;;;;;;;4.72;2.00;;;;;;;8.51;57.54;96939.56;2191387;27;20214;-66
2024/04/22 09:57:25;;;;;;;4.90;2.63;;;;;;;8.23;57.12;96932.56;2193497;26;20225;-66
2024/04/22 09:58:30;;;;;;;3.70;2.50;;;;;;;8.26;56.84;96935.06;2188426;27;20221;-66
2024/04/22 09:59:32;;;;;;;3.30;2.28;;;;;;;8.16;56.92;96933.66;2191453;27;20646;-63
2024/04/22 10:00:33;;;;;;;3.08;1.98;;;;;;;8.22;56.91;96941.25;2191537;26;20246;-63
2024/04/22 10:01:35;;;;;;;7.13;2.42;;;;;;;8.04;57.24;96941.81;2190088;26;20222;-63
2024/04/22 10:02:37;;;;;;;12.70;4.78;;;;;;;7.72;58.00;96935.81;2193281;27;20214;-63
2024/04/22 10:03:39;;;;;;;5.93;2.67;;;;;;;8.00;59.08;96944.50;2192055;27;20830;-64
2024/04/22 10:04:41;;;;;;;6.38;2.65;;;;;;;7.99;59.58;96940.22;2189220;26;20249;-63
2024/04/22 10:05:45;;;;;;;3.30;2.10;;;;;;;7.77;59.28;96936.53;2185456;26;20297;-63
2024/04/22 10:06:47;;;;;;;4.97;3.03;;;;;;;7.70;59.34;96942.81;2188367;27;20311;-63
2024/04/22 10:07:49;;;;;;;4.03;2.15;;;;;;;7.32;57.52;96941.22;2192443;27;20359;-63
2024/04/22 10:08:52;;;;;;;3.55;2.15;;;;;;;7.10;59.50;96934.91;2183999;26;20226;-63
2024/04/22 10:09:56;;;;;;;4.63;2.25;;;;;;;7.51;59.27;96935.53;2192015;27;20229;-63
2024/04/22 10:11:09;;;;;;;7.85;2.20;;;;;;;7.72;58.95;96936.69;2186088;26;20254;-63
2024/04/22 10:12:11;;;;;;;9.07;2.42;;;;;;;8.21;58.12;96928.31;2189587;27;20214;-63
2024/04/22 10:13:25;;;;;;;4.20;2.05;;;;;;;9.11;58.11;96934.97;2191706;27;20222;-63
2024/04/22 10:14:29;;;;;;;4.15;1.85;;;;;;;8.86;58.31;96934.94;2188525;27;20222;-63
2024/04/22 10:15:32;;;;;;;2.67;1.65;;;;;;;8.73;57.67;96929.28;2192924;26;20225;-63
2024/04/22 10:16:34;;;;;;;4.53;2.92;;;;;;;7.71;55.64;96924.56;2191280;26;20216;-63
2024/04/22 10:17:35;;;;;;;9.70;2.20;;;;;;;7.94;56.93;96926.50;2188253;27;20234;-66
2024/04/22 10:18:47;;;;;;;3.80;2.28;;;;;;;8.80;56.30;96922.13;2189390;27;20315;-66
2024/04/22 10:19:49;;;;;;;2.70;1.50;;;;;;;7.81;56.37;96919.97;2191231;26;20323;-66
2024/04/22 10:20:55;;;;;;;5.65;2.00;;;;;;;7.31;58.77;96918.75;2191267;26;20299;-66
2024/04/22 10:22:04;;;;;;;6.07;2.25;;;;;;;7.17;55.27;96918.25;2189243;26;20274;-66
2024/04/22 10:23:07;;;;;;;4.43;1.98;;;;;;;6.98;58.01;96920.47;2191618;26;20519;-66
2024/04/22 10:24:08;;;;;;;3.78;2.05;;;;;;;7.57;57.86;96919.75;2192952;26;20663;-68
2024/04/22 10:25:11;;;;;;;4.30;2.15;;;;;;;7.90;57.76;96918.81;2192023;26;20528;-66
2024/04/22 10:26:20;;;;;;;3.72;2.00;;;;;;;7.27;57.47;96917.09;2190191;27;20651;-67
2024/04/22 10:27:22;;;;;;;10.70;1.70;;;;;;;8.88;56.63;96911.47;2193697;26;20743;-68
2024/04/22 10:28:23;;;;;;;4.20;2.55;;;;;;;8.94;54.60;96909.50;2193287;26;20264;-68
2024/04/22 10:29:25;;;;;;;2.97;1.90;;;;;;;9.44;53.71;96911.22;2190742;26;20231;-66
2024/04/22 10:30:34;;;;;;;3.03;1.50;;;;;;;9.94;54.99;96907.69;2189500;26;20255;-67
2024/04/22 10:31:37;;;;;;;5.25;2.28;;;;;;;9.54;55.94;96913.53;2189635;27;20673;-67
2024/04/22 10:32:39;;;;;;;7.30;1.83;;;;;;;9.31;56.77;96894.34;2194113;26;20326;-67
2024/04/22 10:33:40;;;;;;;4.68;2.20;;;;;;;8.70;56.29;96916.38;2194504;26;20222;-67
2024/04/22 10:34:43;;;;;;;5.82;2.60;;;;;;;8.22;57.42;96915.25;2191522;26;20210;-67
2024/04/22 10:35:46;;;;;;;2.90;1.75;;;;;;;8.28;58.29;96917.66;2184793;26;20254;-67
2024/04/22 10:36:48;;;;;;;5.82;2.22;;;;;;;8.15;58.71;96918.94;2186572;26;20225;-67
2024/04/22 10:37:52;;;;;;;7.38;2.33;;;;;;;8.00;59.66;96920.28;2190639;27;20218;-67
2024/04/22 10:38:54;;;;;;;4.40;2.15;;;;;;;8.14;58.86;96917.25;2192893;27;20254;-67
2024/04/22 10:39:56;;;;;;;4.75;2.05;;;;;;;7.58;58.70;96923.19;2193425;26;20224;-67
2024/04/22 10:40:57;;;;;;;11.18;3.83;;;;;;;7.51;59.57;96912.97;2190601;26;20358;-67
2024/04/22 10:41:59;;;;;;;3.38;2.30;;;;;;;7.52;59.26;96913.84;2188995;26;20218;-67
2024/04/22 10:43:01;;;;;;;4.43;2.10;;;;;;;7.44;59.21;96913.19;2185258;26;20226;-67
2024/04/22 10:44:02;;;;;;;5.00;2.30;;;;;;;6.99;58.75;96912.66;2189192;27;20512;-67
2024/04/22 10:45:04;;;;;;;4.20;1.90;;;;;;;7.28;59.51;96917.97;2194226;26;20221;-67
2024/04/22 10:46:07;;;;;;;3.65;2.08;;;;;;;7.18;59.08;96912.16;2192949;26;20666;-67
2024/04/22 10:47:08;;;;;;;8.90;3.25;;;;;;;7.17;59.80;96911.34;2189577;26;20758;-67
2024/04/22 10:48:10;;;;;;;3.65;2.03;;;;;;;6.94;60.72;96914.50;2188783;27;20221;-67
2024/04/22 10:49:18;;;;;;;3.75;2.20;;;;;;;7.14;60.54;96911.41;2186860;26;20271;-67
2024/04/22 10:50:21;;;;;;;4.35;2.58;;;;;;;6.94;59.99;96903.28;2187976;26;20220;-67
2024/04/22 10:51:23;;;;;;;3.70;1.95;;;;;;;7.00;60.70;96910.91;2191979;27;20517;-67
2024/04/22 10:52:24;;;;;;;10.02;2.92;;;;;;;7.16;60.35;96911.34;2188884;26;20828;-67
2024/04/22 10:53:26;;;;;;;5.25;2.53;;;;;;;7.13;59.71;96911.44;2189072;26;20670;-67
2024/04/22 10:54:28;;;;;;;3.83;2.08;;;;;;;7.18;59.65;96910.41;2187949;27;20267;-67
2024/04/22 10:55:29;;;;;;;3.80;2.22;;;;;;;7.17;59.93;96918.25;2189358;26;20260;-67
2024/04/22 10:56:31;;;;;;;4.07;2.22;;;;;;;7.02;60.45;96910.00;2189617;27;20233;-67
2024/04/22 10:57:33;;;;;;;5.75;2.13;;;;;;;6.43;59.87;96920.13;2191038;26;20220;-67
2024/04/22 10:58:35;;;;;;;7.18;2.33;;;;;;;6.48;60.27;96907.91;2192886;27;20229;-67
2024/04/22 10:59:36;;;;;;;11.07;2.47;;;;;;;6.27;60.21;96915.31;2193185;27;20217;-67
2024/04/22 11:00:38;;;;;;;3.88;2.00;;;;;;;5.33;63.21;96925.88;2186910;26;20301;-66
2024/04/22 11:01:42;;;;;;;5.07;2.30;;;;;;;5.03;63.67;96924.72;2188081;26;20220;-67
2024/04/22 11:02:46;;;;;;;8.05;2.47;;;;;;;5.10;63.31;96926.28;2192700;27;20259;-66
2024/04/22 11:03:48;;;;;;;10.02;2.45;;;;;;;5.23;64.33;96917.44;2193335;27;20265;-66
2024/04/22 11:04:49;;;;;;;5.50;2.00;;;;;;;5.67;63.92;96916.56;2188515;26;20219;-66
2024/04/22 11:05:58;;;;;;;5.13;2.10;;;;;;;5.78;62.49;96916.34;2190049;26;20675;-66
2024/04/22 11:06:59;;;;;;;6.57;2.80;;;;;;;5.16;60.89;96915.84;2190923;26;20623;-66
2024/04/22 11:08:01;;;;;;;4.45;2.20;;;;;;;5.02;61.98;96912.66;2187229;27;20395;-66
2024/04/22 11:09:10;;;;;;;3.90;1.90;;;;;;;5.35;62.42;96907.72;2191166;26;20218;-66
2024/04/22 11:10:12;;;;;;;4.15;2.35;;;;;;;5.48;62.49;96903.97;2190796;27;20211;-66
2024/04/22 11:11:15;;;;;;;9.77;2.15;;;;;;;5.61;61.53;96906.31;2196786;26;20859;-66
2024/04/22 11:12:17;;;;;;;7.72;2.90;;;;;;;5.97;62.19;96909.88;2196738;26;20214;-66
2024/04/22 11:13:22;;;;;;;3.63;1.92;;;;;;;6.17;59.55;96899.09;2191665;27;20344;-66
2024/04/22 11:14:24;;;;;;;3.08;1.90;;;;;;;6.41;58.40;96904.56;2190633;26;20284;-66
2024/04/22 11:15:26;;;;;;;3.30;1.90;;;;;;;6.69;58.52;96898.72;2186827;26;20693;-66
2024/04/22 11:16:27;;;;;;;3.05;1.75;;;;;;;6.63;58.75;96899.72;2189140;26;20219;-66
2024/04/22 11:17:29;;;;;;;3.00;2.00;;;;;;;6.54;58.24;96895.63;2190315;26;20225;-66
2024/04/22 11:18:31;;;;;;;3.08;1.85;;;;;;;6.88;58.92;96893.06;2192654;27;20206;-66
2024/04/22 11:19:32;;;;;;;5.63;2.25;;;;;;;6.15;58.59;96887.06;2187544;26;20226;-66
2024/04/22 11:20:35;;;;;;;10.93;2.42;;;;;;;6.16;59.04;96896.53;2188716;26;20256;-66
2024/04/22 11:21:37;;;;;;;4.80;2.10;;;;;;;6.64;58.79;96892.78;2185856;27;20378;-66
2024/04/22 11:22:39;;;;;;;5.03;1.92;;;;;;;6.84;58.21;96885.38;2192991;27;20218;-66
2024/04/22 11:23:41;;;;;;;4.38;1.80;;;;;;;6.75;59.25;96892.53;2193126;27;20643;-67
2024/04/22 11:24:42;;;;;;;5.82;2.30;;;;;;;6.95;56.93;96882.47;2189520;26;20270;-67
2024/04/22 11:25:46;;;;;;;2.50;1.50;;;;;;;7.18;57.37;96887.03;2192467;26;20258;-66
2024/04/22 11:26:48;;;;;;;3.45;1.73;;;;;;;7.44;57.07;96882.00;2190107;27;20301;-67
2024/04/22 11:27:49;;;;;;;3.72;2.17;;;;;;;7.54;57.12;96883.44;2193254;27;20230;-67
2024/04/22 11:28:55;;;;;;;3.28;1.60;;;;;;;7.40;56.94;96894.22;2193905;26;20216;-64
2024/04/22 11:29:57;;;;;;;3.92;1.67;;;;;;;7.45;57.24;96894.13;2190841;26;20716;-64
2024/04/22 11:30:58;;;;;;;3.53;1.55;;;;;;;7.59;56.27;96891.13;2190034;26;20345;-63
2024/04/22 11:32:00;;;;;;;4.15;1.80;;;;;;;7.22;57.51;96892.16;2193438;26;20271;-63
2024/04/22 11:33:02;;;;;;;6.25;2.50;;;;;;;7.39;58.35;96896.88;2189685;26;20229;-63
2024/04/22 11:34:07;;;;;;;3.97;1.80;;;;;;;7.27;58.86;96888.53;2187839;27;20278;-66
2024/04/22 11:35:09;;;;;;;4.18;1.92;;;;;;;7.43;58.57;96890.72;2188471;27;20224;-67
2024/04/22 11:36:12;;;;;;;3.97;1.90;;;;;;;7.27;58.75;96879.91;2187077;26;20331;-67
2024/04/22 11:37:13;;;;;;;3.63;1.95;;;;;;;7.34;59.21;96890.06;2191435;26;20525;-67
2024/04/22 11:38:18;;;;;;;2.92;1.88;;;;;;;7.51;58.32;96884.41;2191373;26;20228;-67
2024/04/22 11:39:21;;;;;;;2.97;2.00;;;;;;;7.62;58.37;96889.28;2193026;26;20260;-67
2024/04/22 11:40:23;;;;;;;2.90;2.00;;;;;;;7.32;58.72;96880.63;2190636;26;20220;-67
2024/04/22 11:41:24;;;;;;;3.53;2.10;;;;;;;7.44;58.65;96874.22;2188043;26;20608;-67
2024/04/22 11:42:26;;;;;;;3.90;2.20;;;;;;;7.74;58.63;96885.47;2186922;26;20328;-67
2024/04/22 11:43:27;;;;;;;2.97;1.83;;;;;;;7.99;58.00;96877.78;2191580;27;20316;-67
2024/04/22 11:44:29;;;;;;;3.08;1.70;;;;;;;8.08;58.03;96875.81;2189142;27;20220;-67
2024/04/22 11:45:31;;;;;;;2.88;2.05;;;;;;;8.13;57.18;96874.75;2191850;26;20233;-67
2024/04/22 11:46:32;;;;;;;3.50;1.80;;;;;;;8.20;57.24;96883.22;2192190;26;20520;-67
2024/04/22 11:47:34;;;;;;;11.38;2.17;;;;;;;8.24;57.28;96878.78;2191511;27;21085;-67
2024/04/22 11:48:36;;;;;;;3.33;1.85;;;;;;;8.42;57.56;96879.97;2185030;27;20525;-67
2024/04/22 11:49:40;;;;;;;3.88;2.00;;;;;;;8.58;55.96;96885.53;2187355;26;20241;-67
2024/04/22 11:50:42;;;;;;;4.60;2.15;;;;;;;8.42;56.15;96874.75;2191346;26;20275;-67
2024/04/22 11:51:43;;;;;;;3.97;2.15;;;;;;;8.49;56.33;96877.13;2192959;27;20256;-67
2024/04/22 11:52:45;;;;;;;3.58;1.90;;;;;;;9.09;55.69;96878.59;2193658;27;20217;-67
2024/04/22 11:53:46;;;;;;;4.38;1.88;;;;;;;9.70;54.95;96859.91;2190615;26;20217;-67
2024/04/22 11:54:48;;;;;;;3.20;1.98;;;;;;;9.69;52.48;96870.38;2188840;27;20256;-67
2024/04/22 11:55:49;;;;;;;3.17;1.63;;;;;;;9.86;53.95;96867.97;2191028;26;20300;-67
2024/04/22 11:56:51;;;;;;;4.68;1.80;;;;;;;9.29;53.52;96872.69;2191499;26;20801;-67
2024/04/22 11:57:53;;;;;;;8.13;1.83;;;;;;;9.15;54.40;96867.97;2194990;27;20245;-67
2024/04/22 11:58:54;;;;;;;4.43;2.25;;;;;;;9.42;54.99;96870.50;2190060;26;20264;-67
2024/04/22 11:59:56;;;;;;;3.08;1.70;;;;;;;9.41;55.62;96871.41;2193967;27;20300;-67
2024/04/22 12:00:58;;;;;;;3.95;1.88;;;;;;;9.46;54.74;96867.72;2192359;26;20789;-67
2024/04/22 12:01:59;;;;;;;15.32;5.40;;;;;;;9.06;53.09;96863.94;2191542;27;20369;-67